createdAt,value
2018-09-14T00:02:07.952Z,93.10
2018-09-14T00:04:36.509Z,93.10
2018-09-14T00:07:05.701Z,93.10
2018-09-14T00:09:34.262Z,93.30
2018-09-14T00:12:02.780Z,93.20
2018-09-14T00:14:31.326Z,93.00
2018-09-14T00:16:59.843Z,92.90
2018-09-14T00:19:28.403Z,92.70
2018-09-14T00:21:56.934Z,93.00
2018-09-14T00:24:27.082Z,93.20
2018-09-14T00:26:55.752Z,93.20
2018-09-14T00:29:24.311Z,93.20
2018-09-14T00:31:52.909Z,93.30
2018-09-14T00:34:21.439Z,93.40
2018-09-14T00:36:50.052Z,93.30
2018-09-14T00:39:18.589Z,93.40
2018-09-14T00:41:47.149Z,93.30
2018-09-14T00:44:15.706Z,93.30
2018-09-14T00:46:44.845Z,93.30
2018-09-14T00:49:13.417Z,93.20
2018-09-14T00:51:42.597Z,93.20
2018-09-14T00:54:11.172Z,93.20
2018-09-14T00:56:39.840Z,93.20
2018-09-14T00:59:08.397Z,93.20
2018-09-14T01:01:37.016Z,93.20
2018-09-14T01:04:05.586Z,93.20
2018-09-14T01:06:34.160Z,93.30
2018-09-14T01:09:02.744Z,93.30
2018-09-14T01:11:31.286Z,93.20
2018-09-14T01:13:59.805Z,93.20
2018-09-14T01:16:28.376Z,93.00
2018-09-14T01:18:57.030Z,93.00
2018-09-14T01:21:26.512Z,92.90
2018-09-14T01:23:55.278Z,92.90
2018-09-14T01:26:23.795Z,92.80
2018-09-14T01:28:52.315Z,92.70
2018-09-14T01:31:20.873Z,92.60
2018-09-14T01:33:49.447Z,92.40
2018-09-14T01:36:18.005Z,92.30
2018-09-14T01:38:47.474Z,92.20
2018-09-14T01:41:16.032Z,92.20
2018-09-14T01:43:44.547Z,92.10
2018-09-14T01:46:13.235Z,92.10
2018-09-14T01:48:41.792Z,92.10
2018-09-14T01:51:10.327Z,92.00
2018-09-14T01:53:38.880Z,92.00
2018-09-14T01:56:07.488Z,92.00
2018-09-14T01:58:36.040Z,91.90
2018-09-14T02:01:04.648Z,91.80
2018-09-14T02:03:33.257Z,91.80
2018-09-14T02:06:01.742Z,91.70
2018-09-14T02:08:30.308Z,91.70
2018-09-14T02:10:58.846Z,91.70
2018-09-14T02:13:27.371Z,91.70
2018-09-14T02:15:56.526Z,91.70
2018-09-14T02:18:25.099Z,91.60
2018-09-14T02:20:53.793Z,91.60
2018-09-14T02:23:22.344Z,91.60
2018-09-14T02:25:50.873Z,91.50
2018-09-14T02:28:19.423Z,91.40
2018-09-14T02:30:48.241Z,91.40
2018-09-14T02:33:16.794Z,91.40
2018-09-14T02:35:45.312Z,91.30
2018-09-14T02:38:13.873Z,91.30
2018-09-14T02:40:42.414Z,91.30
2018-09-14T02:43:11.068Z,91.30
2018-09-14T02:45:39.632Z,91.30
2018-09-14T02:48:08.232Z,91.40
2018-09-14T02:50:36.772Z,91.40
2018-09-14T02:53:05.428Z,91.40
2018-09-14T02:55:33.986Z,91.40
2018-09-14T02:58:02.571Z,91.30
2018-09-14T03:00:31.121Z,91.30
2018-09-14T03:02:59.696Z,91.50
2018-09-14T03:05:28.208Z,91.50
2018-09-14T03:07:56.770Z,91.50
2018-09-14T03:10:25.362Z,91.50
2018-09-14T03:12:54.239Z,91.40
2018-09-14T03:15:22.838Z,91.40
2018-09-14T03:17:51.391Z,91.50
2018-09-14T03:20:20.303Z,91.50
2018-09-14T03:22:49.049Z,91.60
2018-09-14T03:25:17.589Z,91.60
2018-09-14T03:27:46.333Z,91.60
2018-09-14T03:30:14.905Z,91.50
2018-09-14T03:32:43.421Z,91.60
2018-09-14T03:35:12.073Z,91.60
2018-09-14T03:37:40.596Z,91.60
2018-09-14T03:40:09.208Z,91.60
2018-09-14T03:42:37.795Z,91.70
2018-09-14T03:45:06.788Z,91.80
2018-09-14T03:47:35.396Z,91.70
2018-09-14T03:50:04.188Z,91.70
2018-09-14T03:52:32.889Z,91.70
2018-09-14T03:55:01.464Z,91.70
2018-09-14T03:57:30.001Z,91.70
2018-09-14T03:59:58.677Z,91.80
2018-09-14T04:02:27.567Z,91.80
2018-09-14T04:04:56.117Z,91.80
2018-09-14T04:07:24.634Z,91.90
2018-09-14T04:09:53.191Z,91.90
2018-09-14T04:12:21.740Z,91.90
2018-09-14T04:14:50.301Z,91.90
2018-09-14T04:17:19.076Z,92.00
2018-09-14T04:19:47.631Z,92.00
2018-09-14T04:22:16.163Z,92.00
2018-09-14T04:24:44.717Z,92.00
2018-09-14T04:27:13.270Z,92.00
2018-09-14T04:29:41.821Z,92.00
2018-09-14T04:32:10.346Z,92.00
2018-09-14T04:34:38.928Z,92.00
2018-09-14T04:37:07.493Z,92.10
2018-09-14T04:39:36.054Z,92.20
2018-09-14T04:42:04.584Z,92.20
2018-09-14T04:44:33.144Z,92.20
2018-09-14T04:47:01.702Z,92.20
2018-09-14T04:49:30.230Z,92.20
2018-09-14T04:51:58.774Z,92.30
2018-09-14T04:54:27.345Z,92.40
2018-09-14T04:56:55.886Z,92.30
2018-09-14T04:59:24.699Z,92.40
2018-09-14T05:01:53.289Z,92.30
2018-09-14T05:04:21.871Z,92.30
2018-09-14T05:06:50.522Z,92.30
2018-09-14T05:09:19.049Z,92.30
2018-09-14T05:11:47.649Z,92.30
2018-09-14T05:14:16.272Z,92.70
2018-09-14T05:16:44.794Z,92.50
2018-09-14T05:19:13.427Z,92.60
2018-09-14T05:21:41.964Z,92.60
2018-09-14T05:24:10.622Z,92.60
2018-09-14T05:26:39.255Z,92.60
2018-09-14T05:29:07.768Z,92.40
2018-09-14T05:31:36.325Z,92.40
2018-09-14T05:34:04.864Z,92.60
2018-09-14T05:36:33.442Z,92.30
2018-09-14T05:39:01.979Z,92.30
2018-09-14T05:41:31.166Z,92.20
2018-09-14T05:43:59.691Z,92.00
2018-09-14T05:46:28.247Z,92.00
2018-09-14T05:48:56.806Z,92.00
2018-09-14T05:51:25.402Z,92.00
2018-09-14T05:54:00.416Z,91.90
2018-09-14T05:56:28.964Z,92.00
2018-09-14T05:58:57.582Z,92.20
2018-09-14T06:01:26.140Z,92.00
2018-09-14T06:03:54.692Z,92.00
2018-09-14T06:06:23.465Z,91.90
2018-09-14T06:08:52.021Z,91.90
2018-09-14T06:11:21.228Z,91.80
2018-09-14T06:13:50.225Z,91.70
2018-09-14T06:16:18.796Z,91.50
2018-09-14T06:18:47.586Z,91.50
2018-09-14T06:21:16.111Z,91.30
2018-09-14T06:23:44.638Z,91.30
2018-09-14T06:26:13.198Z,91.30
2018-09-14T06:28:41.989Z,91.10
2018-09-14T06:31:10.588Z,91.10
2018-09-14T06:33:39.301Z,91.00
2018-09-14T06:36:07.853Z,90.90
2018-09-14T06:38:36.907Z,90.90
2018-09-14T06:41:05.480Z,90.80
2018-09-14T06:43:34.032Z,90.70
2018-09-14T06:46:02.680Z,90.40
2018-09-14T06:48:31.307Z,90.60
2018-09-14T06:50:59.876Z,90.70
2018-09-14T06:53:28.506Z,90.70
2018-09-14T06:55:57.256Z,90.80
2018-09-14T06:58:26.028Z,90.80
2018-09-14T07:00:54.864Z,90.70
2018-09-14T07:03:23.387Z,90.70
2018-09-14T07:05:51.988Z,90.70
2018-09-14T07:08:20.507Z,90.70
2018-09-14T07:10:49.479Z,90.70
2018-09-14T07:13:18.454Z,90.60
2018-09-14T07:15:47.108Z,90.80
2018-09-14T07:18:15.887Z,90.80
2018-09-14T07:20:44.527Z,90.80
2018-09-14T07:23:13.224Z,90.90
2018-09-14T07:25:42.001Z,90.90
2018-09-14T07:28:10.556Z,90.90
2018-09-14T07:30:40.032Z,90.90
2018-09-14T07:33:08.651Z,90.90
2018-09-14T07:35:37.280Z,90.90
2018-09-14T07:38:06.001Z,91.00
2018-09-14T07:40:35.128Z,90.80
2018-09-14T07:43:04.026Z,90.40
2018-09-14T07:45:32.859Z,90.00
2018-09-14T07:48:01.432Z,90.00
2018-09-14T07:50:29.966Z,89.40
2018-09-14T07:52:58.549Z,88.70
2018-09-14T07:55:27.147Z,88.20
2018-09-14T07:57:55.691Z,87.90
2018-09-14T08:00:24.211Z,86.90
2018-09-14T08:02:52.785Z,85.70
2018-09-14T08:05:21.428Z,84.60
2018-09-14T08:07:49.979Z,84.20
2018-09-14T08:10:18.948Z,83.60
2018-09-14T08:12:47.641Z,83.30
2018-09-14T08:15:16.192Z,83.20
2018-09-14T08:17:45.260Z,83.00
2018-09-14T08:20:13.820Z,82.70
2018-09-14T08:22:42.369Z,82.40
2018-09-14T08:25:11.224Z,81.50
2018-09-14T08:27:39.808Z,81.10
2018-09-14T08:30:09.495Z,80.70
2018-09-14T08:32:38.106Z,79.60
2018-09-14T08:35:06.800Z,78.90
2018-09-14T08:37:35.367Z,78.80
2018-09-14T08:40:04.049Z,77.50
2018-09-14T08:42:32.763Z,77.50
2018-09-14T08:45:01.553Z,77.50
2018-09-14T08:47:30.123Z,78.40
2018-09-14T08:49:58.804Z,77.40
2018-09-14T08:52:27.319Z,77.20
2018-09-14T08:54:55.889Z,77.20
2018-09-14T08:57:24.453Z,77.90
2018-09-14T08:59:53.013Z,79.20
2018-09-14T09:02:21.585Z,79.20
2018-09-14T09:04:50.151Z,79.20
2018-09-14T09:07:18.754Z,78.30
2018-09-14T09:09:47.764Z,78.40
2018-09-14T09:12:16.417Z,77.80
2018-09-14T09:14:45.250Z,76.20
2018-09-14T09:17:13.804Z,75.50
2018-09-14T09:19:42.407Z,75.20
2018-09-14T09:22:11.108Z,74.80
2018-09-14T09:24:39.664Z,74.50
2018-09-14T09:27:09.394Z,74.50
2018-09-14T09:29:37.923Z,74.40
2018-09-14T09:32:07.069Z,74.30
2018-09-14T09:34:35.884Z,74.80
2018-09-14T09:37:04.553Z,75.40
2018-09-14T09:39:33.163Z,74.70
2018-09-14T09:42:01.723Z,74.70
2018-09-14T09:44:30.255Z,75.20
2018-09-14T09:46:58.864Z,76.30
2018-09-14T09:49:27.389Z,75.60
2018-09-14T09:51:55.997Z,75.20
2018-09-14T09:54:24.540Z,74.60
2018-09-14T09:56:53.496Z,73.60
2018-09-14T09:59:22.153Z,73.50
2018-09-14T10:01:55.977Z,73.70
2018-09-14T10:04:29.873Z,73.10
2018-09-14T10:06:58.427Z,72.90
2018-09-14T10:09:27.105Z,73.10
2018-09-14T10:11:55.664Z,73.00
2018-09-14T10:14:24.347Z,72.40
2018-09-14T10:16:52.959Z,71.60
2018-09-14T10:19:21.986Z,71.50
2018-09-14T10:21:50.821Z,71.30
2018-09-14T10:24:19.289Z,70.40
2018-09-14T10:26:47.898Z,70.20
2018-09-14T10:29:16.396Z,69.90
2018-09-14T10:31:44.956Z,70.20
2018-09-14T10:34:14.321Z,70.40
2018-09-14T10:36:42.948Z,69.90
2018-09-14T10:39:12.614Z,69.30
2018-09-14T10:41:41.675Z,69.00
2018-09-14T10:44:10.411Z,68.90
2018-09-14T10:46:42.164Z,68.40
2018-09-14T10:49:10.855Z,68.40
2018-09-14T10:51:39.427Z,67.80
2018-09-14T10:54:08.055Z,67.00
2018-09-14T10:56:36.616Z,66.10
2018-09-14T10:59:05.205Z,64.80
2018-09-14T11:01:33.756Z,65.80
2018-09-14T11:04:02.894Z,65.60
2018-09-14T11:06:31.445Z,65.60
2018-09-14T11:09:00.367Z,65.70
2018-09-14T11:11:28.887Z,66.60
2018-09-14T11:13:57.410Z,67.30
2018-09-14T11:16:25.966Z,67.20
2018-09-14T11:18:54.533Z,66.80
2018-09-14T11:21:23.268Z,66.80
2018-09-14T11:23:52.129Z,65.20
2018-09-14T11:26:20.657Z,64.60
2018-09-14T11:28:49.672Z,64.10
2018-09-14T11:31:18.285Z,64.00
2018-09-14T11:33:47.358Z,64.70
2018-09-14T11:36:16.468Z,65.20
2018-09-14T11:38:45.032Z,65.10
2018-09-14T11:41:13.597Z,64.60
2018-09-14T11:43:42.198Z,64.30
2018-09-14T11:46:11.608Z,63.60
2018-09-14T11:48:40.361Z,63.90
2018-09-14T11:51:08.908Z,63.90
2018-09-14T11:53:37.505Z,64.00
2018-09-14T11:56:06.031Z,63.80
2018-09-14T11:58:34.601Z,63.30
2018-09-14T12:01:03.141Z,62.60
2018-09-14T12:03:31.701Z,61.20
2018-09-14T12:06:00.477Z,59.80
2018-09-14T12:08:29.051Z,58.30
2018-09-14T12:10:57.614Z,57.60
2018-09-14T12:13:26.165Z,57.00
2018-09-14T12:15:54.744Z,56.40
2018-09-14T12:18:23.299Z,56.20
2018-09-14T12:20:51.872Z,55.40
2018-09-14T12:23:20.751Z,54.70
2018-09-14T12:25:49.309Z,54.90
2018-09-14T12:28:17.835Z,55.60
2018-09-14T12:30:46.420Z,55.40
2018-09-14T12:33:14.956Z,53.90
2018-09-14T12:35:43.545Z,50.50
2018-09-14T12:38:12.068Z,48.30
2018-09-14T12:40:40.620Z,46.70
2018-09-14T12:43:09.148Z,44.80
2018-09-14T12:45:37.715Z,45.10
2018-09-14T12:48:06.519Z,44.40
2018-09-14T12:50:35.104Z,44.80
2018-09-14T12:53:03.664Z,45.50
2018-09-14T12:55:32.803Z,46.40
2018-09-14T12:58:01.325Z,47.10
2018-09-14T13:00:29.866Z,47.00
2018-09-14T13:02:58.395Z,46.70
2018-09-14T13:05:26.992Z,45.80
2018-09-14T13:07:55.514Z,45.80
2018-09-14T13:10:24.063Z,45.90
2018-09-14T13:12:52.601Z,46.40
2018-09-14T13:15:21.134Z,46.70
2018-09-14T13:17:49.648Z,46.80
2018-09-14T13:20:18.247Z,47.00
2018-09-14T13:22:46.771Z,47.50
2018-09-14T13:25:15.330Z,47.60
2018-09-14T13:27:43.885Z,47.20
2018-09-14T13:30:12.491Z,47.70
2018-09-14T13:32:43.563Z,48.30
2018-09-14T13:35:12.116Z,48.90
2018-09-14T13:37:40.627Z,49.30
2018-09-14T13:40:09.243Z,49.80
2018-09-14T13:42:37.746Z,50.20
2018-09-14T13:45:06.364Z,50.50
2018-09-14T13:47:34.952Z,51.00
2018-09-14T13:50:03.519Z,51.40
2018-09-14T13:52:32.093Z,51.10
2018-09-14T13:55:00.680Z,51.20
2018-09-14T13:57:29.192Z,50.80
2018-09-14T13:59:57.760Z,50.20
2018-09-14T14:02:26.943Z,50.10
2018-09-14T14:04:55.520Z,49.00
2018-09-14T14:07:24.206Z,48.20
2018-09-14T14:09:52.862Z,47.20
2018-09-14T14:12:21.297Z,46.90
2018-09-14T14:14:49.900Z,47.60
2018-09-14T14:17:18.627Z,48.10
2018-09-14T14:19:47.107Z,48.60
2018-09-14T14:22:15.653Z,49.30
2018-09-14T14:24:44.203Z,49.20
2018-09-14T14:27:12.805Z,49.90
2018-09-14T14:29:41.337Z,49.60
2018-09-14T14:32:09.885Z,48.90
2018-09-14T14:34:38.423Z,49.10
2018-09-14T14:37:06.975Z,49.50
2018-09-14T14:39:35.516Z,50.40
2018-09-14T14:42:04.177Z,50.10
2018-09-14T14:44:32.711Z,50.10
2018-09-14T14:47:01.314Z,50.40
2018-09-14T14:49:29.928Z,50.20
2018-09-14T14:51:58.502Z,50.00
2018-09-14T14:54:27.403Z,50.00
2018-09-14T14:56:55.975Z,49.90
2018-09-14T14:59:24.572Z,49.20
2018-09-14T15:01:53.136Z,49.10
2018-09-14T15:04:21.645Z,49.30
2018-09-14T15:06:50.561Z,48.80
2018-09-14T15:09:19.137Z,48.40
2018-09-14T15:11:47.675Z,48.20
2018-09-14T15:14:16.205Z,48.20
2018-09-14T15:16:44.755Z,47.30
2018-09-14T15:19:13.355Z,46.50
2018-09-14T15:21:41.883Z,45.60
2018-09-14T15:24:10.508Z,44.70
2018-09-14T15:26:39.127Z,44.10
2018-09-14T15:29:07.856Z,43.80
2018-09-14T15:31:36.445Z,43.40
2018-09-14T15:34:05.516Z,44.10
2018-09-14T15:36:34.201Z,44.80
2018-09-14T15:39:02.945Z,45.00
2018-09-14T15:41:31.536Z,45.30
2018-09-14T15:44:00.120Z,45.40
2018-09-14T15:46:28.698Z,45.90
2018-09-14T15:48:57.270Z,46.60
2018-09-14T15:51:25.811Z,46.60
2018-09-14T15:53:54.407Z,45.70
2018-09-14T15:56:22.935Z,44.30
2018-09-14T15:58:51.472Z,43.00
2018-09-14T16:01:20.125Z,41.50
2018-09-14T16:03:48.699Z,40.80
2018-09-14T16:06:18.162Z,39.50
2018-09-14T16:08:46.770Z,37.90
2018-09-14T16:11:15.356Z,37.00
2018-09-14T16:13:43.863Z,36.80
2018-09-14T16:16:12.376Z,36.90
2018-09-14T16:18:40.925Z,37.60
2018-09-14T16:21:09.480Z,38.40
2018-09-14T16:23:38.080Z,39.40
2018-09-14T16:26:06.646Z,40.40
2018-09-14T16:28:35.208Z,41.40
2018-09-14T16:31:04.110Z,42.30
2018-09-14T16:33:32.661Z,43.30
2018-09-14T16:36:01.184Z,44.60
2018-09-14T16:38:29.751Z,45.70
2018-09-14T16:40:58.397Z,46.90
2018-09-14T16:43:26.977Z,47.80
2018-09-14T16:45:55.537Z,49.00
2018-09-14T16:48:24.110Z,49.20
2018-09-14T16:50:52.645Z,49.60
2018-09-14T16:53:21.216Z,50.00
2018-09-14T16:55:49.761Z,50.80
2018-09-14T16:58:18.571Z,51.20
2018-09-14T17:00:47.124Z,51.80
2018-09-14T17:03:15.680Z,52.40
2018-09-14T17:05:44.300Z,53.00
2018-09-14T17:08:12.849Z,53.80
2018-09-14T17:10:41.372Z,54.50
2018-09-14T17:13:09.943Z,55.20
2018-09-14T17:15:38.468Z,55.70
2018-09-14T17:18:07.037Z,56.00
2018-09-14T17:20:35.564Z,56.50
2018-09-14T17:23:05.780Z,57.10
2018-09-14T17:25:34.318Z,57.60
2018-09-14T17:28:02.883Z,58.20
2018-09-14T17:30:31.416Z,58.60
2018-09-14T17:33:00.028Z,59.10
2018-09-14T17:35:28.649Z,59.40
2018-09-14T17:37:57.180Z,59.80
2018-09-14T17:40:26.112Z,60.40
2018-09-14T17:42:54.722Z,60.80
2018-09-14T17:45:23.249Z,61.60
2018-09-14T17:47:51.798Z,62.20
2018-09-14T17:50:20.386Z,63.00
2018-09-14T17:52:48.932Z,63.90
2018-09-14T17:55:17.538Z,64.60
2018-09-14T17:57:46.190Z,65.10
2018-09-14T18:00:14.754Z,65.50
2018-09-14T18:02:43.312Z,65.70
2018-09-14T18:05:11.919Z,66.30
2018-09-14T18:07:40.436Z,67.20
2018-09-14T18:10:08.995Z,67.20
2018-09-14T18:12:37.563Z,67.40
2018-09-14T18:15:06.161Z,67.50
2018-09-14T18:17:34.693Z,67.50
2018-09-14T18:20:04.110Z,68.70
2018-09-14T18:22:33.443Z,68.80
2018-09-14T18:25:02.029Z,69.20
2018-09-14T18:27:30.960Z,69.90
2018-09-14T18:29:59.678Z,69.90
2018-09-14T18:32:28.220Z,70.50
2018-09-14T18:34:57.114Z,70.80
2018-09-14T18:37:25.920Z,70.20
2018-09-14T18:39:54.468Z,70.90
2018-09-14T18:42:23.252Z,71.20
2018-09-14T18:44:51.972Z,71.90
2018-09-14T18:47:20.947Z,72.50
2018-09-14T18:49:49.630Z,73.40
2018-09-14T18:52:18.219Z,74.20
2018-09-14T18:54:47.040Z,74.80
2018-09-14T18:57:15.583Z,74.80
2018-09-14T18:59:44.163Z,75.40
2018-09-14T19:02:14.622Z,75.60
2018-09-14T19:04:49.914Z,76.30
2018-09-14T19:07:19.421Z,76.00
2018-09-14T19:09:48.493Z,76.50
2018-09-14T19:12:17.419Z,77.50
2018-09-14T19:14:46.150Z,78.00
2018-09-14T19:17:15.984Z,77.50
2018-09-14T19:19:44.873Z,77.60
2018-09-14T19:22:13.911Z,78.40
2018-09-14T19:24:43.169Z,79.20
2018-09-14T19:27:11.738Z,78.90
2018-09-14T19:29:40.587Z,79.10
2018-09-14T19:32:09.195Z,79.30
2018-09-14T19:34:38.233Z,80.20
2018-09-14T19:37:07.039Z,79.70
2018-09-14T19:39:35.551Z,79.80
2018-09-14T19:42:04.090Z,79.80
2018-09-14T19:44:32.861Z,80.10
2018-09-14T19:47:01.561Z,80.10
2018-09-14T19:49:30.079Z,80.50
2018-09-14T19:51:58.671Z,80.70
2018-09-14T19:54:27.234Z,80.90
2018-09-14T19:56:55.777Z,81.20
2018-09-14T19:59:24.369Z,81.50
2018-09-14T20:01:52.925Z,81.70
2018-09-14T20:04:21.425Z,82.50
2018-09-14T20:06:50.120Z,82.10
2018-09-14T20:09:18.672Z,82.40
2018-09-14T20:11:47.241Z,83.00
2018-09-14T20:14:15.787Z,83.70
2018-09-14T20:16:44.432Z,84.60
2018-09-14T20:19:13.013Z,84.00
2018-09-14T20:21:41.705Z,84.20
2018-09-14T20:24:10.237Z,84.30
2018-09-14T20:26:39.430Z,85.00
2018-09-14T20:29:07.957Z,85.50
2018-09-14T20:31:36.520Z,85.50
2018-09-14T20:34:05.208Z,85.70
2018-09-14T20:36:34.125Z,86.30
2018-09-14T20:39:02.700Z,86.30
2018-09-14T20:41:31.864Z,87.10
2018-09-14T20:44:00.432Z,87.00
2018-09-14T20:46:29.098Z,86.80
2018-09-14T20:48:57.625Z,86.60
2018-09-14T20:51:26.189Z,86.70
2018-09-14T20:53:54.790Z,86.70
2018-09-14T20:56:23.345Z,86.60
2018-09-14T20:58:51.907Z,86.50
2018-09-14T21:01:20.462Z,87.10
2018-09-14T21:03:51.765Z,87.30
2018-09-14T21:06:21.107Z,87.90
2018-09-14T21:08:49.630Z,87.30
2018-09-14T21:11:18.197Z,87.50
2018-09-14T21:13:46.722Z,87.80
2018-09-14T21:16:15.271Z,87.50
2018-09-14T21:18:43.812Z,87.50
2018-09-14T21:21:12.426Z,87.60
2018-09-14T21:23:40.972Z,87.50
2018-09-14T21:26:09.820Z,87.70
2018-09-14T21:28:38.704Z,88.30
2018-09-14T21:31:07.268Z,87.70
2018-09-14T21:33:35.912Z,87.80
2018-09-14T21:36:07.615Z,88.60
2018-09-14T21:38:43.442Z,88.50
2018-09-14T21:41:14.696Z,88.40
2018-09-14T21:43:45.822Z,88.30
2018-09-14T21:46:17.457Z,88.30
2018-09-14T21:48:48.778Z,88.10
2018-09-14T21:51:20.919Z,88.30
2018-09-14T21:53:52.800Z,88.10
2018-09-14T21:56:23.940Z,88.10
2018-09-14T21:58:55.378Z,88.10
2018-09-14T22:01:29.550Z,88.40
2018-09-14T22:04:01.905Z,88.10
2018-09-14T22:06:30.504Z,87.20
2018-09-14T22:08:59.073Z,86.90
2018-09-14T22:11:27.640Z,86.80
2018-09-14T22:13:56.167Z,86.60
2018-09-14T22:16:24.733Z,86.50
2018-09-14T22:18:53.263Z,85.90
2018-09-14T22:21:21.841Z,85.40
2018-09-14T22:23:50.403Z,85.20
2018-09-14T22:26:18.929Z,84.20
2018-09-14T22:28:47.497Z,83.50
2018-09-14T22:31:16.063Z,82.90
2018-09-14T22:33:44.646Z,82.40
2018-09-14T22:36:13.176Z,81.60
2018-09-14T22:38:42.088Z,81.20
2018-09-14T22:41:10.615Z,80.40
2018-09-14T22:43:39.229Z,79.60
2018-09-14T22:46:07.791Z,79.20
2018-09-14T22:48:36.345Z,78.80
2018-09-14T22:51:04.890Z,78.00
2018-09-14T22:53:33.421Z,77.50
2018-09-14T22:56:02.241Z,77.20
2018-09-14T22:58:30.776Z,76.70
2018-09-14T23:01:04.590Z,76.40
2018-09-14T23:03:33.202Z,76.00
2018-09-14T23:06:01.742Z,75.80
2018-09-14T23:08:30.417Z,75.60
2018-09-14T23:10:58.947Z,75.30
2018-09-14T23:13:27.475Z,75.10
2018-09-14T23:15:58.927Z,74.50
2018-09-14T23:18:28.495Z,74.30
2018-09-14T23:20:57.081Z,74.10
2018-09-14T23:23:25.664Z,73.80
2018-09-14T23:25:56.350Z,73.40
2018-09-14T23:28:24.887Z,73.30
2018-09-14T23:30:53.404Z,73.30
2018-09-14T23:33:21.951Z,73.10
2018-09-14T23:35:50.455Z,73.00
2018-09-14T23:38:19.007Z,72.50
2018-09-14T23:40:47.532Z,72.60
2018-09-14T23:43:16.110Z,71.80
2018-09-14T23:45:44.643Z,71.80
2018-09-14T23:48:13.187Z,71.80
2018-09-14T23:50:42.310Z,71.70
2018-09-14T23:53:10.992Z,71.30
2018-09-14T23:55:39.577Z,71.50
2018-09-14T23:58:08.119Z,71.50
